Details From SBPA - Salgado Filho
To SBCX - Campo Dos Bugres
Flight Number -
Tags decoded
Created
Modified
Stats Distance 48 nm / 89 km
Max Altitude 0 ft / 0 m
Waypoints 2
Social Downloads 1
Likes 0
Share VATSIM

Download

Looking for another format? Having issues loading an existing format? Contact us
Advertisement - Login to hide

Notes

Requested: SBPA SBCX

Route

SBPA SBCX

ID Type Via Altitude (ft/m) Position (lat/lon) Dist (leg/tot) Name
O SBPA APT - 0 / 0 -29.99443 / -51.17143 - / 0 nm Salgado Filho
O SBCX APT - 0 / 0 -29.19706 / -51.18753 47 / 47 nm Campo Dos Bugres

Altitude Profile

Advertisement - Login to hide

SBPA

Details ICAO SBPA (POA)
Name Salgado Filho Airport
Region Brazil
Timezone America/Sao_Paulo (UTC-3.0)
Stats Elevation 11 ft / 3 m (AMSL)
Location -29.994600° -51.171200°
Runways 1
Magnetic Variation 17.006° W

METAR

SBPA 161700Z 15004KT 060V210 CAVOK 29/17 Q1009

Decode

TAF

Not found

Departure Runways

ID Width Length Bearing (true/mag) Surface Threshold Overrun Markings Lighting
11 148 ft / 45 m 7,487 ft / 2,282 m 91.26° / 108.26° ASPHALT 0 ft / 0 m 197 ft / 60 m PREC-APP EDGE THRESHOLD ALSF-I
29 148 ft / 45 m 7,487 ft / 2,282 m 271.25° / 288.25° ASPHALT 0 ft / 0 m 197 ft / 60 m APP EDGE THRESHOLD

SBCX

Details ICAO SBCX (CXJ)
Name Campo Dos Bugres
Region Brazil
Timezone America/Sao_Paulo (UTC-3.0)
Stats Elevation 2,472 ft / 753 m (AMSL)
Location -29.197100° -51.187500°
Runways 1
Magnetic Variation 17.323° W

METAR

SBCX 161600Z 03010KT CAVOK 24/17 Q1013

Decode

TAF

Not found

Destination Runways

ID Width Length Bearing (true/mag) Surface Threshold Overrun Markings Lighting
15 98 ft / 30 m 6,469 ft / 1,972 m 135.91° / 153.24° ASPHALT 902 ft / 275 m 0 ft / 0 m APP EDGE THRESHOLD
33 98 ft / 30 m 6,469 ft / 1,972 m 315.91° / 333.23° ASPHALT 0 ft / 0 m 210 ft / 64 m APP EDGE THRESHOLD

Popular Alternatives